Dwarf, KY (41739)

9:50 AM EDT on July 26, 2014 (GMT -0400)
KKYJACKS3 Elev 994 ft | 37.41 °N, 83.42 °W | Change Station
Active Advisory: Special Statement Active Notice: Record Report

Current weather conditions updated 37 seconds ago

Clear
Clear
69.8 °F
Feels Like 69.8 °F
N
0.0
Wind Variable Wind from North
Gusts 0.0 mph

Today is forecast to be Much Warmer than yesterday.

Today
High -- | Low -- °F
--% Chance of Precip.
Yesterday
High -- | Low -- °F
Precip. -- in
6:32 AM 8:45 PM
Waning Crescent, 0% visible
Pressure 30.04 in
Visibility 10.0 miles
Clouds Clear
Dew Point 68 °F
Humidity 93%
Rainfall 0.00 in
Snow Depth Not available.
UV 2 out of 12
Pollen 4.30 out of 12
Air Quality Not available.
Flu Activity Not available.
METAR KJKL 261253Z AUTO 00000KT 10SM CLR 19/16 A3006 RMK AO2 SLP170 T01890161

More Conditions Fewer Conditions

Pressure 30.04 in
Visibility 10.0 miles
Clouds Clear
Dew Point 68 °F
Humidity 93%
Rainfall 0.00 in
Snow Depth Not available.
UV 2 out of 12
Pollen 4.30 out of 12
Air Quality Not available.
Flu Activity Not available.
METAR KJKL 261253Z AUTO 00000KT 10SM CLR 19/16 A3006 RMK AO2 SLP170 T01890161

More Conditions Fewer Conditions

10-Day Weather Forecast

Almanac

Astronomy

Jul. 26, 2014 Rise Set
Actual Time 6:32 AM EDT 8:45 PM EDT
Civil Twilight 6:02 AM EDT 9:14 PM EDT
Nautical Twilight 5:26 AM EDT 9:50 PM EDT
Astronomical Twilight 4:47 AM EDT 10:29 PM EDT
Moon 6:22 AM EDT 8:21 PM EDT
Length of Visible Light 15h 12m
Length of Day
14h 13m
Tomorrow will be 1m 39s shorter.
Waning Crescent, 0% of the Moon is Illuminated
Today
Waning Crescent
Jul 26
New
Aug 3
First Quarter
Aug 10
Full
Aug 17
Last Quarter

Today's Extremes

State Highs State Lows

Community

WunderPhotos

Upload Photos

1,737,570 photos uploaded!

Nearby

Snow Depth

Station Depth Elevation
No new snow has been reported.

Earthquake Activity

City Distance Mag. Time & Date
No recent earthquake activity has been reported nearby.
Minimum magnitude displayed is 2.5.

Coastal Water Temperatures

Place Temperature
No Stations Reporting

Nearby Weather Stations

Station Location Temp. Dew Point Humidity Wind Precip. Elev Updated Type
Talbert, KY 69.8 °F 68 °F 93% North  at  0.0 mph 0.00 in / hr 994 ft 9:50 AM EDT Normal

Show More Stations Show Fewer Stations